Time;durP1;ratioP1;P1;durP2;ratioP2;P2;SDS_P1;SDS_P2;PMS_P1;PMS_P2;Temp;Humidity;BMP_temperature;BMP_pressure;BME280_temperature;BME280_humidity;BME280_pressure;Samples;Min_cycle;Max_cycle;Signal;HPM_P1;HPM_P2
2023/08/22 00:00:22;;;;;;;17.73;11.30;;;21.20;99.90;;;;;;5040795;28;20489;-61
2023/08/22 00:02:47;;;;;;;17.37;11.23;;;21.20;99.90;;;;;;5045216;28;20179;-56
2023/08/22 00:05:13;;;;;;;13.23;11.03;;;21.10;99.90;;;;;;5048928;28;20453;-56
2023/08/22 00:07:39;;;;;;;19.00;11.03;;;21.10;99.90;;;;;;5047135;28;20236;-58
2023/08/22 00:10:06;;;;;;;19.47;11.27;;;21.10;99.90;;;;;;5043366;28;20193;-58
2023/08/22 00:12:32;;;;;;;12.47;10.60;;;21.00;99.90;;;;;;5046382;28;20163;-58
2023/08/22 00:14:57;;;;;;;15.23;11.23;;;21.00;99.90;;;;;;5043645;28;20433;-57
2023/08/22 00:17:24;;;;;;;16.40;11.30;;;21.00;99.90;;;;;;5039358;28;20167;-59
2023/08/22 00:19:50;;;;;;;17.67;10.63;;;21.00;99.90;;;;;;5046591;28;20642;-57
2023/08/22 00:22:16;;;;;;;15.50;11.20;;;20.90;99.90;;;;;;5047199;28;20492;-60
2023/08/22 00:24:41;;;;;;;19.77;12.43;;;20.90;99.90;;;;;;5044762;28;20199;-57
2023/08/22 00:27:07;;;;;;;17.53;11.90;;;20.90;99.90;;;;;;5048958;28;20202;-58
2023/08/22 00:29:33;;;;;;;19.57;10.93;;;20.90;99.90;;;;;;5044282;28;20566;-59
2023/08/22 00:31:58;;;;;;;14.80;11.40;;;20.90;99.90;;;;;;5045149;28;20179;-56
2023/08/22 00:34:25;;;;;;;14.60;11.10;;;20.80;99.90;;;;;;5047901;28;20182;-56
2023/08/22 00:36:50;;;;;;;15.70;10.77;;;20.80;99.90;;;;;;5047370;28;21055;-57
2023/08/22 00:39:16;;;;;;;14.70;10.80;;;20.80;99.90;;;;;;5040949;28;20465;-57
2023/08/22 00:41:42;;;;;;;20.30;12.30;;;20.80;99.90;;;;;;5040009;28;20529;-57
2023/08/22 00:44:08;;;;;;;15.60;11.53;;;20.80;99.90;;;;;;5041222;28;20215;-58
2023/08/22 00:46:35;;;;;;;13.80;10.53;;;20.70;99.90;;;;;;5047277;28;20462;-57
2023/08/22 00:49:03;;;;;;;20.07;11.40;;;20.70;99.90;;;;;;5047241;28;20171;-56
2023/08/22 00:51:28;;;;;;;13.23;10.53;;;20.70;99.90;;;;;;5046051;28;20445;-56
2023/08/22 00:53:54;;;;;;;14.00;10.77;;;20.70;99.90;;;;;;5048870;28;20488;-56
2023/08/22 00:56:19;;;;;;;17.60;11.00;;;20.70;99.90;;;;;;5049574;28;20181;-56
2023/08/22 00:58:45;;;;;;;19.90;11.77;;;20.60;99.90;;;;;;5040350;28;20186;-56
2023/08/22 01:01:11;;;;;;;14.80;11.03;;;20.60;99.90;;;;;;5041947;28;20204;-60
2023/08/22 01:03:37;;;;;;;14.00;11.00;;;20.60;99.90;;;;;;5044985;28;20962;-56
2023/08/22 01:06:10;;;;;;;21.93;11.00;;;20.60;99.90;;;;;;5039712;28;20197;-58
2023/08/22 01:08:39;;;;;;;15.47;11.80;;;20.60;99.90;;;;;;5042004;28;20175;-57
2023/08/22 01:11:19;;;;;;;16.43;11.20;;;20.60;99.90;;;;;;5047605;28;20464;-60
2023/08/22 01:13:48;;;;;;;15.70;11.40;;;20.50;99.90;;;;;;5041220;28;20897;-56
2023/08/22 01:16:15;;;;;;;17.43;11.70;;;20.50;99.90;;;;;;5044271;28;20457;-57
2023/08/22 01:18:41;;;;;;;15.57;11.53;;;20.50;99.90;;;;;;5045443;28;20459;-58
2023/08/22 01:21:07;;;;;;;16.73;11.70;;;20.50;99.90;;;;;;5043913;28;20508;-57
2023/08/22 01:23:33;;;;;;;13.43;10.43;;;20.50;99.90;;;;;;5038037;28;20435;-58
2023/08/22 01:26:00;;;;;;;16.00;11.67;;;20.40;99.90;;;;;;5038750;28;20232;-58
2023/08/22 01:28:36;;;;;;;11.77;10.20;;;20.40;99.90;;;;;;5037442;28;20278;-57
2023/08/22 01:31:29;;;;;;;15.53;11.67;;;20.40;99.90;;;;;;5041726;28;20519;-57
2023/08/22 01:34:08;;;;;;;16.03;11.67;;;20.40;99.90;;;;;;5042662;28;20417;-57
2023/08/22 01:36:36;;;;;;;13.13;11.57;;;20.40;99.90;;;;;;5037165;28;20484;-58
2023/08/22 01:39:06;;;;;;;14.83;11.60;;;20.30;99.90;;;;;;5044543;28;20504;-58
2023/08/22 01:41:32;;;;;;;14.23;11.43;;;20.30;99.90;;;;;;5043437;28;20969;-55
2023/08/22 01:43:57;;;;;;;21.80;11.50;;;20.30;99.90;;;;;;5047305;28;21109;-55
2023/08/22 01:46:23;;;;;;;18.80;12.43;;;20.30;99.90;;;;;;5045417;28;20459;-55
2023/08/22 01:48:49;;;;;;;16.23;11.07;;;20.30;99.90;;;;;;5041481;28;20175;-58
2023/08/22 01:51:14;;;;;;;15.40;11.27;;;20.30;99.90;;;;;;5044656;28;20201;-56
2023/08/22 01:53:40;;;;;;;14.30;11.23;;;20.20;99.90;;;;;;5044963;28;20186;-58
2023/08/22 01:56:05;;;;;;;13.60;11.37;;;20.20;99.90;;;;;;5043947;28;20207;-55
2023/08/22 01:58:31;;;;;;;14.50;11.03;;;20.20;99.90;;;;;;5047326;28;20178;-55
2023/08/22 02:00:57;;;;;;;16.97;11.10;;;20.20;99.90;;;;;;5039079;28;20665;-56
2023/08/22 02:03:23;;;;;;;15.23;12.50;;;20.20;99.90;;;;;;5040620;28;20674;-57
2023/08/22 02:05:49;;;;;;;19.10;11.93;;;20.20;99.90;;;;;;5045715;28;20294;-58
2023/08/22 02:08:14;;;;;;;13.83;11.37;;;20.10;99.90;;;;;;5046878;28;20508;-57
2023/08/22 02:10:40;;;;;;;17.27;12.47;;;20.10;99.90;;;;;;5038932;28;20226;-54
2023/08/22 02:13:06;;;;;;;20.33;12.10;;;20.10;99.90;;;;;;5033890;28;20192;-57
2023/08/22 02:15:31;;;;;;;16.10;10.70;;;20.10;99.90;;;;;;5047488;28;20171;-56
2023/08/22 02:17:57;;;;;;;14.40;10.73;;;20.10;99.90;;;;;;5044817;28;20179;-59
2023/08/22 02:20:23;;;;;;;12.77;10.90;;;20.10;99.90;;;;;;5041215;28;20201;-55
2023/08/22 02:22:49;;;;;;;17.17;10.70;;;20.10;99.90;;;;;;5042624;28;20197;-55
2023/08/22 02:25:14;;;;;;;17.00;10.70;;;20.00;99.90;;;;;;5043639;28;20529;-55
2023/08/22 02:27:40;;;;;;;17.10;10.73;;;20.00;99.90;;;;;;5040341;28;20179;-55
2023/08/22 02:30:07;;;;;;;14.80;10.60;;;20.00;99.90;;;;;;5043665;28;20724;-58
2023/08/22 02:32:33;;;;;;;16.50;11.87;;;20.00;99.90;;;;;;5041061;28;20667;-56
2023/08/22 02:34:58;;;;;;;14.40;10.87;;;20.00;99.90;;;;;;5044302;28;20425;-55
2023/08/22 02:37:24;;;;;;;18.37;11.27;;;20.00;99.90;;;;;;5040089;28;20183;-57
2023/08/22 02:39:49;;;;;;;19.33;11.40;;;20.00;99.90;;;;;;5046318;28;20199;-56
2023/08/22 02:42:15;;;;;;;15.17;11.40;;;20.00;99.90;;;;;;5042869;28;20179;-56
2023/08/22 02:44:41;;;;;;;20.37;11.63;;;19.90;99.90;;;;;;5047551;28;20202;-56
2023/08/22 02:47:06;;;;;;;14.60;11.47;;;19.90;99.90;;;;;;5040550;28;20245;-56
2023/08/22 02:49:32;;;;;;;17.30;11.03;;;19.90;99.90;;;;;;5038353;28;20191;-56
2023/08/22 02:51:58;;;;;;;16.37;12.63;;;19.90;99.90;;;;;;5046825;28;20675;-55
2023/08/22 02:54:23;;;;;;;14.53;11.80;;;19.90;99.90;;;;;;5045970;28;20596;-56
2023/08/22 02:56:49;;;;;;;15.70;10.43;;;19.90;99.90;;;;;;5040946;28;20513;-56
2023/08/22 02:59:16;;;;;;;16.80;10.93;;;19.90;99.90;;;;;;5042115;28;20175;-58
2023/08/22 03:01:42;;;;;;;16.83;11.50;;;19.80;99.90;;;;;;5037499;28;20770;-61
2023/08/22 03:04:07;;;;;;;14.80;12.60;;;19.80;99.90;;;;;;5032794;28;20445;-56
2023/08/22 03:06:33;;;;;;;19.80;11.57;;;19.80;99.90;;;;;;5040455;28;20828;-57
2023/08/22 03:08:59;;;;;;;16.27;11.60;;;19.80;99.90;;;;;;5046763;28;20180;-55
2023/08/22 03:11:24;;;;;;;14.90;11.43;;;19.80;99.90;;;;;;5043137;28;20285;-56
2023/08/22 03:13:50;;;;;;;16.73;11.70;;;19.80;99.90;;;;;;5043814;28;20580;-55
2023/08/22 03:16:15;;;;;;;14.20;11.57;;;19.80;99.90;;;;;;5038597;28;20190;-56
2023/08/22 03:18:42;;;;;;;13.40;10.90;;;19.80;99.90;;;;;;5044332;28;20664;-54
2023/08/22 03:21:08;;;;;;;19.70;10.87;;;19.80;99.90;;;;;;5045916;28;20256;-56
2023/08/22 03:23:33;;;;;;;13.27;10.80;;;19.80;99.90;;;;;;5045530;28;20961;-54
2023/08/22 03:26:00;;;;;;;13.87;11.23;;;19.80;99.90;;;;;;5044748;28;20205;-58
2023/08/22 03:28:27;;;;;;;15.13;11.40;;;19.70;99.90;;;;;;5045631;28;20289;-56
2023/08/22 03:31:03;;;;;;;17.93;11.13;;;19.70;99.90;;;;;;5045593;28;20491;-56
2023/08/22 03:33:30;;;;;;;17.03;11.90;;;19.70;99.90;;;;;;5046321;28;21817;-58
2023/08/22 03:35:56;;;;;;;19.77;12.20;;;19.70;99.90;;;;;;5046456;28;20457;-55
2023/08/22 03:38:22;;;;;;;21.43;12.00;;;19.70;99.90;;;;;;5044516;28;20448;-56
2023/08/22 03:40:48;;;;;;;19.17;12.23;;;19.60;99.90;;;;;;5039188;28;20449;-55
2023/08/22 03:43:16;;;;;;;16.87;12.57;;;19.60;99.90;;;;;;5040938;28;20423;-56
2023/08/22 03:45:45;;;;;;;17.30;12.50;;;19.60;99.90;;;;;;5044602;28;20222;-55
2023/08/22 03:48:11;;;;;;;22.13;12.57;;;19.60;99.90;;;;;;5040986;28;20453;-59
2023/08/22 03:50:41;;;;;;;17.80;12.40;;;19.60;99.90;;;;;;5043813;28;20448;-57
2023/08/22 03:53:07;;;;;;;16.27;12.23;;;19.60;99.90;;;;;;5043532;28;20417;-56
2023/08/22 03:55:33;;;;;;;17.90;11.60;;;19.50;99.90;;;;;;5040300;28;20483;-55
2023/08/22 03:57:58;;;;;;;15.23;11.30;;;19.50;99.90;;;;;;5044483;28;20426;-56
2023/08/22 04:00:25;;;;;;;19.80;11.43;;;19.50;99.90;;;;;;5044551;28;20203;-55
2023/08/22 04:02:54;;;;;;;16.80;11.83;;;19.50;99.90;;;;;;5041544;28;20214;-55
2023/08/22 04:05:21;;;;;;;16.73;12.43;;;19.50;99.90;;;;;;5043713;28;20463;-55
2023/08/22 04:07:46;;;;;;;15.30;11.63;;;19.50;99.90;;;;;;5034339;28;20977;-55
2023/08/22 04:10:12;;;;;;;16.73;12.37;;;19.50;99.90;;;;;;5038651;28;20544;-56
2023/08/22 04:12:37;;;;;;;18.77;13.40;;;19.40;99.90;;;;;;5038577;28;20320;-58
2023/08/22 04:15:03;;;;;;;17.77;11.97;;;19.40;99.90;;;;;;5038809;28;20246;-56
2023/08/22 04:17:29;;;;;;;22.53;11.40;;;19.40;99.90;;;;;;5043078;28;20800;-55
2023/08/22 04:19:54;;;;;;;18.33;12.27;;;19.40;99.90;;;;;;5046656;28;20277;-58
2023/08/22 04:22:20;;;;;;;23.07;12.20;;;19.40;99.90;;;;;;5047150;28;20629;-57
2023/08/22 04:24:45;;;;;;;17.63;12.20;;;19.40;99.90;;;;;;5036359;28;20192;-57
2023/08/22 04:27:11;;;;;;;23.43;13.20;;;19.40;99.90;;;;;;5047225;28;20175;-55
2023/08/22 04:29:37;;;;;;;16.73;11.70;;;19.40;99.90;;;;;;5043021;28;20198;-55
2023/08/22 04:32:03;;;;;;;18.20;11.83;;;19.40;99.90;;;;;;5045414;28;20206;-59
2023/08/22 04:34:29;;;;;;;26.57;11.77;;;19.40;99.90;;;;;;5044595;28;20182;-56
2023/08/22 04:36:55;;;;;;;15.77;12.00;;;19.30;99.90;;;;;;5040503;28;20438;-59
2023/08/22 04:39:21;;;;;;;17.87;12.27;;;19.30;99.90;;;;;;5047885;28;20208;-58
2023/08/22 04:41:46;;;;;;;24.40;12.20;;;19.30;99.90;;;;;;5050387;28;20179;-55
2023/08/22 04:44:12;;;;;;;16.00;12.00;;;19.30;99.90;;;;;;5043799;28;20190;-57
2023/08/22 04:46:37;;;;;;;16.30;12.40;;;19.30;99.90;;;;;;5044932;28;20202;-56
2023/08/22 04:49:03;;;;;;;18.00;13.20;;;19.30;99.90;;;;;;5047701;28;20228;-59
2023/08/22 04:51:29;;;;;;;15.17;12.37;;;19.30;99.90;;;;;;5047492;28;20210;-56
2023/08/22 04:53:54;;;;;;;15.23;12.20;;;19.30;99.90;;;;;;5045768;28;20237;-59
2023/08/22 04:56:21;;;;;;;18.40;12.80;;;19.30;99.90;;;;;;5045943;28;20644;-56
2023/08/22 04:58:46;;;;;;;18.23;12.57;;;19.30;99.90;;;;;;5045460;28;20210;-55
2023/08/22 05:01:12;;;;;;;15.03;12.50;;;19.30;99.90;;;;;;5043848;28;20947;-57
2023/08/22 05:03:38;;;;;;;16.80;12.30;;;19.30;99.90;;;;;;5045016;28;20176;-57
2023/08/22 05:06:03;;;;;;;18.37;12.50;;;19.30;99.90;;;;;;5045922;28;20206;-58
2023/08/22 05:08:29;;;;;;;17.60;13.33;;;19.30;99.90;;;;;;5048682;28;20179;-56
2023/08/22 05:10:54;;;;;;;21.60;13.10;;;19.30;99.90;;;;;;5039730;28;20191;-58
2023/08/22 05:13:20;;;;;;;16.57;12.13;;;19.30;99.90;;;;;;5042859;28;20592;-56
2023/08/22 05:15:46;;;;;;;22.40;11.90;;;19.40;99.90;;;;;;5041755;28;20187;-57
2023/08/22 05:18:11;;;;;;;20.90;11.53;;;19.40;99.90;;;;;;5045833;28;20694;-56
2023/08/22 05:20:40;;;;;;;14.90;11.23;;;19.40;99.90;;;;;;5035078;28;20191;-57
2023/08/22 05:23:05;;;;;;;18.57;12.13;;;19.50;99.90;;;;;;5044222;28;20179;-56
2023/08/22 05:25:31;;;;;;;22.60;13.00;;;19.50;99.90;;;;;;5043024;28;20510;-55
2023/08/22 05:27:56;;;;;;;15.07;11.53;;;19.50;99.90;;;;;;5041785;28;20613;-59
2023/08/22 05:30:22;;;;;;;15.77;11.03;;;19.60;99.90;;;;;;5047926;28;20203;-56
2023/08/22 05:32:48;;;;;;;17.20;11.87;;;19.60;99.90;;;;;;5045277;28;20171;-60
2023/08/22 05:35:13;;;;;;;15.93;11.87;;;19.70;99.90;;;;;;5044706;28;20270;-56
2023/08/22 05:37:39;;;;;;;17.03;11.77;;;19.70;99.90;;;;;;5048148;28;20545;-58
2023/08/22 05:40:08;;;;;;;16.20;11.60;;;19.80;99.90;;;;;;5046389;28;20203;-60
2023/08/22 05:42:34;;;;;;;16.27;11.90;;;19.80;99.90;;;;;;5043995;28;20548;-57
2023/08/22 05:44:59;;;;;;;17.37;12.27;;;19.90;99.90;;;;;;5038562;28;20459;-59
2023/08/22 05:47:25;;;;;;;18.07;12.30;;;20.00;99.90;;;;;;5035075;28;20794;-58
2023/08/22 05:49:50;;;;;;;13.10;10.90;;;20.00;99.90;;;;;;5038829;28;20194;-57
2023/08/22 05:52:16;;;;;;;17.70;11.50;;;20.10;99.90;;;;;;5044006;28;20179;-56
2023/08/22 05:54:43;;;;;;;14.80;11.67;;;20.10;99.90;;;;;;5038377;28;20329;-58
2023/08/22 05:57:08;;;;;;;13.30;11.80;;;20.20;99.90;;;;;;5045857;28;20623;-56
2023/08/22 05:59:34;;;;;;;14.60;11.30;;;20.30;99.90;;;;;;5044941;28;20458;-57
2023/08/22 06:02:00;;;;;;;13.60;11.63;;;20.30;99.90;;;;;;5043079;28;20172;-60
2023/08/22 06:04:25;;;;;;;13.67;10.47;;;20.40;99.90;;;;;;5044696;28;20211;-57
2023/08/22 06:06:51;;;;;;;12.53;11.03;;;20.50;99.90;;;;;;5043097;28;20183;-57
2023/08/22 06:09:17;;;;;;;18.93;12.40;;;20.50;99.90;;;;;;5045851;28;20214;-57
2023/08/22 06:11:42;;;;;;;16.47;12.13;;;20.60;99.90;;;;;;5041378;28;20207;-60
2023/08/22 06:14:08;;;;;;;22.57;11.90;;;20.60;99.90;;;;;;5046658;28;20197;-57
2023/08/22 06:16:33;;;;;;;18.30;12.63;;;20.70;99.90;;;;;;5043188;28;20562;-58
2023/08/22 06:19:00;;;;;;;16.70;11.50;;;20.70;99.90;;;;;;5043809;28;20257;-56
2023/08/22 06:21:26;;;;;;;19.60;11.87;;;20.80;99.90;;;;;;5044207;28;20253;-57
2023/08/22 06:23:51;;;;;;;21.73;11.47;;;20.80;99.90;;;;;;5042577;28;20433;-58
2023/08/22 06:26:17;;;;;;;19.50;12.57;;;20.90;99.90;;;;;;5046465;28;20207;-57
2023/08/22 06:28:43;;;;;;;14.13;12.20;;;20.90;99.90;;;;;;5044566;28;20712;-61
2023/08/22 06:31:08;;;;;;;17.20;12.63;;;21.00;99.90;;;;;;5039143;28;20284;-57
2023/08/22 06:33:34;;;;;;;22.13;12.13;;;21.10;99.90;;;;;;5038521;28;20678;-60
2023/08/22 06:35:59;;;;;;;18.80;12.40;;;21.10;99.90;;;;;;5035182;28;20185;-60
2023/08/22 06:38:25;;;;;;;18.20;12.17;;;21.20;99.90;;;;;;5040420;28;20193;-59
2023/08/22 06:40:51;;;;;;;18.17;12.27;;;21.20;99.90;;;;;;5037629;28;20841;-57
2023/08/22 06:43:16;;;;;;;18.43;11.23;;;21.30;99.90;;;;;;5040628;28;20210;-57
2023/08/22 06:45:42;;;;;;;18.47;11.30;;;21.40;99.90;;;;;;5045868;28;20199;-58
2023/08/22 06:48:08;;;;;;;16.20;12.20;;;21.50;99.90;;;;;;5037083;28;20245;-59
2023/08/22 06:50:34;;;;;;;15.43;12.10;;;21.50;99.90;;;;;;5034178;28;20229;-59
2023/08/22 06:53:00;;;;;;;15.77;12.13;;;21.60;99.90;;;;;;5042302;28;20453;-57
2023/08/22 06:55:26;;;;;;;21.40;12.50;;;21.70;99.90;;;;;;5040947;28;20722;-57
2023/08/22 06:57:51;;;;;;;20.23;11.80;;;21.90;99.90;;;;;;5041167;28;20692;-58
2023/08/22 07:00:18;;;;;;;15.50;11.80;;;22.00;99.90;;;;;;5034971;28;20457;-56
2023/08/22 07:02:45;;;;;;;22.90;13.50;;;22.00;99.90;;;;;;5041865;28;20182;-57
2023/08/22 07:05:12;;;;;;;18.23;12.33;;;22.10;99.90;;;;;;5042817;28;20876;-60
2023/08/22 07:07:38;;;;;;;35.33;14.10;;;22.20;99.90;;;;;;5038835;28;20425;-58
2023/08/22 07:10:06;;;;;;;22.23;12.93;;;22.20;99.90;;;;;;5035118;28;20454;-57
2023/08/22 07:12:32;;;;;;;24.30;13.60;;;22.30;99.90;;;;;;5031659;28;20436;-58
2023/08/22 07:14:58;;;;;;;16.40;12.43;;;22.40;99.90;;;;;;5031206;28;20430;-56
2023/08/22 07:17:23;;;;;;;25.37;13.17;;;22.40;99.90;;;;;;5027344;28;20209;-61
2023/08/22 07:19:49;;;;;;;23.80;12.50;;;22.60;99.90;;;;;;5032277;28;20243;-61
2023/08/22 07:22:14;;;;;;;21.23;13.00;;;22.70;99.90;;;;;;5032317;28;20249;-55
2023/08/22 07:24:40;;;;;;;20.50;12.10;;;22.80;99.90;;;;;;5030768;28;20272;-63
2023/08/22 07:27:09;;;;;;;27.00;13.23;;;22.90;99.90;;;;;;5037977;28;20263;-60
2023/08/22 07:29:35;;;;;;;24.23;12.73;;;23.00;99.90;;;;;;5036108;28;20261;-60
2023/08/22 07:32:00;;;;;;;23.97;12.80;;;23.10;99.90;;;;;;5030665;28;20442;-61
2023/08/22 07:34:26;;;;;;;21.63;12.60;;;23.30;99.90;;;;;;5037895;28;20173;-59
2023/08/22 07:36:52;;;;;;;25.40;12.90;;;23.40;99.90;;;;;;5032700;28;20179;-61
2023/08/22 07:39:19;;;;;;;23.20;11.90;;;23.50;99.90;;;;;;5037744;28;20179;-61
2023/08/22 07:41:44;;;;;;;21.73;12.30;;;23.60;99.90;;;;;;5043717;28;20258;-60
2023/08/22 07:44:10;;;;;;;20.90;11.43;;;23.60;99.90;;;;;;5041319;28;20518;-61
2023/08/22 07:46:35;;;;;;;19.90;12.00;;;23.70;99.90;;;;;;5039215;28;20234;-60
2023/08/22 07:49:01;;;;;;;24.67;12.30;;;23.80;99.90;;;;;;5037851;28;20178;-60
2023/08/22 07:51:27;;;;;;;24.27;12.00;;;23.80;99.90;;;;;;5041456;28;20746;-60
2023/08/22 07:53:53;;;;;;;23.63;12.00;;;24.00;99.90;;;;;;5029561;28;20206;-58
2023/08/22 07:56:18;;;;;;;19.83;12.40;;;24.00;99.90;;;;;;5036113;28;20265;-62
2023/08/22 07:58:45;;;;;;;19.27;11.77;;;24.10;99.90;;;;;;5032528;28;21268;-62
2023/08/22 08:01:10;;;;;;;18.53;11.20;;;24.20;99.90;;;;;;5035003;28;20756;-60
2023/08/22 08:03:36;;;;;;;15.67;10.23;;;24.30;99.90;;;;;;5041545;28;20448;-61
2023/08/22 08:06:02;;;;;;;14.70;11.97;;;24.40;99.90;;;;;;5041925;28;20219;-61
2023/08/22 08:08:28;;;;;;;16.07;11.30;;;24.50;99.90;;;;;;5040275;28;20164;-61
2023/08/22 08:10:53;;;;;;;19.10;11.23;;;24.70;99.90;;;;;;5039258;28;20280;-60
2023/08/22 08:13:19;;;;;;;25.53;11.33;;;24.80;99.90;;;;;;5041500;28;20179;-60
2023/08/22 08:15:44;;;;;;;19.80;10.90;;;24.90;99.90;;;;;;5040509;28;20175;-61
2023/08/22 08:18:10;;;;;;;18.50;11.23;;;25.00;99.90;;;;;;5038812;28;20269;-61
2023/08/22 08:20:37;;;;;;;17.00;11.63;;;25.10;99.90;;;;;;5038993;28;21481;-60
2023/08/22 08:23:03;;;;;;;15.63;11.83;;;25.20;99.90;;;;;;5040413;28;20321;-58
2023/08/22 08:25:29;;;;;;;17.20;11.50;;;25.30;99.90;;;;;;5026215;28;20535;-60
2023/08/22 08:27:56;;;;;;;19.63;11.27;;;25.40;99.90;;;;;;5034902;28;20430;-61
2023/08/22 08:30:22;;;;;;;17.27;10.83;;;25.60;99.90;;;;;;5036136;28;20449;-60
2023/08/22 08:32:47;;;;;;;15.67;10.10;;;25.70;99.90;;;;;;5037535;28;20425;-61
2023/08/22 08:35:13;;;;;;;15.93;9.10;;;25.80;99.90;;;;;;5033369;28;20665;-60
2023/08/22 08:37:38;;;;;;;20.10;9.67;;;25.90;99.90;;;;;;5037131;28;20737;-60
2023/08/22 08:40:08;;;;;;;13.67;9.20;;;26.00;99.40;;;;;;5037340;28;20243;-61
2023/08/22 08:42:38;;;;;;;11.70;8.57;;;26.10;94.70;;;;;;5037478;28;20228;-60
2023/08/22 08:45:05;;;;;;;11.03;8.63;;;26.30;91.30;;;;;;5037282;28;20460;-59
2023/08/22 08:47:32;;;;;;;14.10;7.80;;;26.30;88.20;;;;;;5038768;28;20561;-61
2023/08/22 08:50:00;;;;;;;22.53;8.90;;;26.40;84.80;;;;;;5033748;28;20281;-61
2023/08/22 08:52:27;;;;;;;22.50;9.50;;;26.50;84.00;;;;;;5038645;28;20190;-60
2023/08/22 08:54:57;;;;;;;11.47;6.97;;;26.70;84.10;;;;;;5036990;28;20194;-61
2023/08/22 08:57:23;;;;;;;17.33;7.30;;;26.80;82.20;;;;;;5040333;28;20217;-60
2023/08/22 08:59:48;;;;;;;11.40;6.83;;;26.90;75.70;;;;;;5039143;28;20237;-61
2023/08/22 09:02:17;;;;;;;9.03;6.53;;;26.90;71.60;;;;;;5038325;28;20187;-60
2023/08/22 09:04:43;;;;;;;7.30;5.70;;;27.00;69.50;;;;;;5031964;28;20290;-60
2023/08/22 09:07:09;;;;;;;11.33;5.60;;;27.10;69.90;;;;;;5035755;28;20265;-61
2023/08/22 09:09:35;;;;;;;5.33;4.77;;;27.30;68.40;;;;;;5040057;28;20202;-61
2023/08/22 09:12:09;;;;;;;5.60;4.73;;;27.30;65.80;;;;;;5029665;28;20198;-62
2023/08/22 09:14:44;;;;;;;10.73;5.90;;;27.40;61.60;;;;;;5042935;28;20170;-62
2023/08/22 09:17:17;;;;;;;11.93;5.20;;;27.50;61.70;;;;;;5033923;28;20184;-61
2023/08/22 09:19:43;;;;;;;7.73;4.50;;;27.60;62.20;;;;;;5031848;28;20198;-62
2023/08/22 09:22:13;;;;;;;4.20;3.80;;;27.70;61.70;;;;;;5034675;28;20274;-61
2023/08/22 09:24:39;;;;;;;6.50;4.50;;;27.80;59.60;;;;;;5035539;28;20198;-60
2023/08/22 09:27:05;;;;;;;6.43;3.83;;;27.90;59.20;;;;;;5039248;28;20310;-61
2023/08/22 09:29:33;;;;;;;7.50;3.97;;;28.00;58.80;;;;;;5035819;28;20982;-61
2023/08/22 09:32:01;;;;;;;5.05;3.88;;;28.10;58.00;;;;;;5044550;28;20183;-61
2023/08/22 09:34:27;;;;;;;5.05;4.18;;;28.20;56.50;;;;;;5038225;28;20180;-61
2023/08/22 09:36:56;;;;;;;3.47;3.17;;;28.30;56.70;;;;;;5039123;28;20182;-61
2023/08/22 09:39:23;;;;;;;4.38;3.53;;;28.40;56.00;;;;;;5035948;28;20176;-60
2023/08/22 09:41:52;;;;;;;4.55;3.25;;;28.40;54.10;;;;;;5037672;28;20171;-63
2023/08/22 09:44:22;;;;;;;4.07;3.22;;;28.50;55.00;;;;;;5025357;28;20201;-61
2023/08/22 09:46:50;;;;;;;4.88;3.67;;;28.60;55.20;;;;;;5031115;28;20190;-62
2023/08/22 09:49:15;;;;;;;7.20;3.85;;;28.70;55.00;;;;;;5032964;28;20750;-62
2023/08/22 09:51:44;;;;;;;4.72;3.63;;;28.80;55.20;;;;;;5038220;28;20183;-61
2023/08/22 09:54:09;;;;;;;3.35;3.05;;;28.90;54.50;;;;;;5034583;28;20195;-60
2023/08/22 09:56:36;;;;;;;7.03;4.15;;;29.00;54.30;;;;;;5040852;28;20182;-61
2023/08/22 09:59:03;;;;;;;5.35;3.42;;;29.10;54.30;;;;;;5029641;28;20183;-61
2023/08/22 10:01:33;;;;;;;4.45;4.00;;;29.10;54.50;;;;;;5027393;28;20209;-62
2023/08/22 10:04:03;;;;;;;4.65;4.07;;;29.20;55.20;;;;;;5036094;28;20699;-62
2023/08/22 10:06:30;;;;;;;5.22;4.20;;;29.30;54.80;;;;;;5032565;28;20214;-61
2023/08/22 10:08:57;;;;;;;8.27;3.88;;;29.40;54.70;;;;;;5033551;28;20548;-58
2023/08/22 10:11:25;;;;;;;9.00;4.20;;;29.50;54.50;;;;;;5036550;28;20277;-61
2023/08/22 10:13:51;;;;;;;5.18;3.60;;;29.60;54.30;;;;;;5034636;28;20251;-62
2023/08/22 10:16:18;;;;;;;5.78;4.10;;;29.70;54.20;;;;;;5033522;28;20191;-62
2023/08/22 10:18:44;;;;;;;6.65;4.30;;;29.80;53.50;;;;;;5030807;28;20330;-62
2023/08/22 10:21:10;;;;;;;6.53;4.00;;;29.90;53.90;;;;;;5028956;28;20767;-62
2023/08/22 10:23:55;;;;;;;6.25;3.97;;;30.00;54.20;;;;;;5035157;28;20187;-61
2023/08/22 10:26:22;;;;;;;5.28;4.18;;;30.10;53.80;;;;;;5034390;28;20301;-63
2023/08/22 10:29:16;;;;;;;9.30;4.85;;;30.10;53.70;;;;;;5039043;28;20172;-63
2023/08/22 10:32:02;;;;;;;5.95;4.00;;;30.20;53.20;;;;;;5037804;28;20177;-62
2023/08/22 10:34:34;;;;;;;5.35;3.95;;;30.20;53.30;;;;;;5021363;28;20202;-62
2023/08/22 10:37:00;;;;;;;4.18;3.72;;;30.30;53.10;;;;;;5036498;28;20185;-63
2023/08/22 10:39:39;;;;;;;4.85;4.22;;;30.30;52.50;;;;;;5032487;28;20181;-62
2023/08/22 10:42:15;;;;;;;6.30;4.28;;;30.30;52.10;;;;;;5031608;28;20192;-63
2023/08/22 10:44:42;;;;;;;4.70;4.15;;;30.40;52.70;;;;;;5031235;28;20192;-63
2023/08/22 10:47:14;;;;;;;7.07;4.60;;;30.40;53.10;;;;;;5037852;28;20202;-63
2023/08/22 10:49:40;;;;;;;5.10;4.10;;;30.50;52.30;;;;;;5032810;28;20229;-62
2023/08/22 10:52:11;;;;;;;7.78;4.00;;;30.60;52.90;;;;;;5032466;28;20177;-61
2023/08/22 10:55:08;;;;;;;5.78;4.57;;;30.60;53.40;;;;;;5029543;28;20286;-62
2023/08/22 10:57:38;;;;;;;4.93;3.78;;;30.70;52.80;;;;;;5041130;28;20643;-62
2023/08/22 11:00:20;;;;;;;6.13;4.35;;;30.80;52.80;;;;;;5036769;28;20218;-62
2023/08/22 11:02:59;;;;;;;5.13;3.92;;;30.80;52.00;;;;;;5037302;28;20195;-62
2023/08/22 11:05:26;;;;;;;9.07;4.13;;;31.00;52.10;;;;;;5028435;28;20319;-62
2023/08/22 11:07:52;;;;;;;6.88;3.90;;;31.10;51.50;;;;;;5035170;28;20178;-61
2023/08/22 11:10:22;;;;;;;5.50;3.47;;;31.20;50.60;;;;;;5036049;28;20567;-61
2023/08/22 11:12:50;;;;;;;5.22;3.78;;;31.20;50.30;;;;;;5036928;28;20190;-61
2023/08/22 11:15:17;;;;;;;8.05;4.68;;;31.40;51.80;;;;;;5037071;28;20202;-61
2023/08/22 11:17:45;;;;;;;4.40;4.00;;;31.50;51.10;;;;;;5031299;28;20897;-60
2023/08/22 11:20:12;;;;;;;6.75;4.00;;;31.60;51.30;;;;;;5036901;28;20214;-60
2023/08/22 11:22:40;;;;;;;6.50;3.95;;;31.70;52.00;;;;;;5033399;28;20179;-60
2023/08/22 11:25:06;;;;;;;4.57;4.10;;;31.80;51.00;;;;;;5033491;28;20245;-61
2023/08/22 11:27:32;;;;;;;8.13;4.30;;;31.90;49.20;;;;;;5039023;28;20247;-61
2023/08/22 11:29:58;;;;;;;6.53;4.07;;;31.90;49.20;;;;;;5039338;28;20221;-60
2023/08/22 11:32:31;;;;;;;7.90;4.75;;;32.00;50.10;;;;;;5049390;28;20165;-62
2023/08/22 11:35:00;;;;;;;5.38;4.28;;;32.20;50.50;;;;;;5042649;28;20183;-62
2023/08/22 11:37:27;;;;;;;7.05;4.80;;;32.30;49.80;;;;;;5041825;28;20579;-62
2023/08/22 11:39:55;;;;;;;6.78;4.70;;;32.20;49.20;;;;;;5040098;28;20195;-63
2023/08/22 11:42:24;;;;;;;6.55;4.38;;;32.20;49.10;;;;;;5037194;28;20701;-62
2023/08/22 11:44:59;;;;;;;7.90;4.00;;;32.20;50.00;;;;;;5042427;28;20291;-62
2023/08/22 11:47:34;;;;;;;5.13;4.63;;;32.40;49.60;;;;;;5045881;28;20180;-61
2023/08/22 11:50:00;;;;;;;8.20;4.65;;;32.50;49.00;;;;;;5042826;28;20784;-62
2023/08/22 11:52:29;;;;;;;9.48;4.93;;;32.50;49.30;;;;;;5039690;28;20194;-62
2023/08/22 11:55:26;;;;;;;5.25;4.53;;;32.60;49.10;;;;;;5043612;28;20671;-62
2023/08/22 11:57:58;;;;;;;5.40;4.35;;;32.80;47.50;;;;;;5035048;28;20555;-63
2023/08/22 12:00:27;;;;;;;6.82;4.78;;;32.90;48.90;;;;;;5046058;28;20770;-62
2023/08/22 12:02:54;;;;;;;6.50;4.38;;;33.10;48.90;;;;;;5041864;28;20265;-63
2023/08/22 12:05:33;;;;;;;14.32;5.40;;;33.10;46.70;;;;;;5043991;28;20869;-63
2023/08/22 12:08:00;;;;;;;9.13;4.20;;;33.20;48.40;;;;;;5040251;28;20647;-62
2023/08/22 12:10:37;;;;;;;6.38;4.70;;;33.30;46.80;;;;;;5039637;28;20718;-61
2023/08/22 12:13:02;;;;;;;7.75;4.43;;;33.30;45.80;;;;;;5033748;28;21035;-62
2023/08/22 12:15:28;;;;;;;13.80;5.25;;;33.40;47.50;;;;;;5038885;28;20186;-62
2023/08/22 12:17:54;;;;;;;6.15;4.68;;;33.50;47.30;;;;;;5038712;28;20182;-63
2023/08/22 12:20:19;;;;;;;6.95;4.63;;;33.50;47.90;;;;;;5046875;28;20228;-62
2023/08/22 12:22:45;;;;;;;7.95;4.68;;;33.60;47.50;;;;;;5041981;28;20235;-61
2023/08/22 12:25:11;;;;;;;4.70;4.15;;;33.70;47.00;;;;;;5041888;28;20677;-62
2023/08/22 12:27:37;;;;;;;4.65;4.25;;;33.80;47.80;;;;;;5037250;28;20182;-62
2023/08/22 12:30:03;;;;;;;5.97;4.05;;;33.90;47.20;;;;;;5038988;28;20205;-63
2023/08/22 12:32:29;;;;;;;5.85;4.75;;;34.00;47.00;;;;;;5032972;28;20291;-63